Time;durP1;ratioP1;P1;durP2;ratioP2;P2;SDS_P1;SDS_P2;PMS_P1;PMS_P2;Temp;Humidity;BMP_temperature;BMP_pressure;BME280_temperature;BME280_humidity;BME280_pressure;Samples;Min_cycle;Max_cycle;Signal;HPM_P1;HPM_P2
2023/04/02 00:02:26;;;;;;;0.95;0.50;;;9.90;99.90;;;;;;10041042;28;20040;-62
2023/04/02 00:07:29;;;;;;;0.57;0.30;;;9.90;99.90;;;;;;10058255;28;20387;-64
2023/04/02 00:12:19;;;;;;;0.40;0.38;;;9.90;99.90;;;;;;10054453;28;20562;-65
2023/04/02 00:17:10;;;;;;;1.10;0.43;;;10.00;99.90;;;;;;10056315;28;20040;-65
2023/04/02 00:22:05;;;;;;;0.52;0.30;;;10.10;99.90;;;;;;10054582;28;20042;-65
2023/04/02 00:26:55;;;;;;;0.68;0.52;;;10.10;99.90;;;;;;10066819;28;20050;-66
2023/04/02 00:31:49;;;;;;;1.02;0.60;;;10.10;99.90;;;;;;10064167;28;20025;-63
2023/04/02 00:36:43;;;;;;;1.90;0.65;;;10.10;99.90;;;;;;10064223;28;20025;-65
2023/04/02 00:41:37;;;;;;;1.17;0.52;;;10.00;99.90;;;;;;10063659;28;20049;-63
2023/04/02 00:46:45;;;;;;;1.50;0.45;;;10.00;99.90;;;;;;10063751;28;20041;-66
2023/04/02 00:51:43;;;;;;;1.25;0.60;;;10.00;99.90;;;;;;10063983;28;20032;-63
2023/04/02 00:56:44;;;;;;;0.75;0.63;;;10.00;99.90;;;;;;10074893;28;20041;-63
2023/04/02 01:01:36;;;;;;;1.60;0.68;;;9.90;99.90;;;;;;10050076;28;20063;-63
2023/04/02 01:06:33;;;;;;;2.33;0.55;;;9.90;99.90;;;;;;10067846;28;20057;-64
2023/04/02 01:11:46;;;;;;;0.70;0.30;;;9.90;99.90;;;;;;10062142;28;20029;-63
2023/04/02 01:16:45;;;;;;;1.02;0.55;;;9.90;99.90;;;;;;10062767;28;20171;-63
2023/04/02 01:21:57;;;;;;;1.13;0.55;;;10.00;99.90;;;;;;10062235;28;20112;-63
2023/04/02 01:27:00;;;;;;;2.15;0.73;;;10.00;99.90;;;;;;10058262;28;20046;-63
2023/04/02 01:31:54;;;;;;;0.90;0.55;;;10.00;99.90;;;;;;10061645;28;20026;-64
2023/04/02 01:37:22;;;;;;;0.47;0.47;;;10.00;99.90;;;;;;10061044;28;20036;-63
2023/04/02 01:42:27;;;;;;;2.00;0.75;;;10.00;99.90;;;;;;10062143;28;20033;-64
2023/04/02 01:47:24;;;;;;;1.83;0.80;;;10.00;99.90;;;;;;10062084;28;20505;-63
2023/04/02 01:52:18;;;;;;;1.08;0.60;;;10.00;99.90;;;;;;10060851;28;20026;-64
2023/04/02 01:57:09;;;;;;;2.00;1.23;;;10.10;99.90;;;;;;10072612;28;20344;-63
2023/04/02 02:02:05;;;;;;;2.38;1.20;;;10.00;99.90;;;;;;10048395;28;20029;-64
2023/04/02 02:06:59;;;;;;;1.20;0.82;;;10.10;99.90;;;;;;10069539;28;20099;-65
2023/04/02 02:11:50;;;;;;;1.92;0.70;;;10.00;99.90;;;;;;10061615;28;20041;-63
2023/04/02 02:16:42;;;;;;;1.30;0.88;;;10.00;99.90;;;;;;10053626;28;20100;-65
2023/04/02 02:21:45;;;;;;;1.25;0.80;;;10.10;99.90;;;;;;10057985;28;20029;-65
2023/04/02 02:26:37;;;;;;;1.33;0.93;;;10.10;99.90;;;;;;10056851;28;20137;-63
2023/04/02 02:31:31;;;;;;;1.45;1.00;;;10.00;99.90;;;;;;10058841;28;20039;-64
2023/04/02 02:36:34;;;;;;;4.30;1.05;;;10.10;99.90;;;;;;10058259;28;20025;-63
2023/04/02 02:41:38;;;;;;;2.97;1.20;;;10.10;99.90;;;;;;10046910;28;20052;-65
2023/04/02 02:46:31;;;;;;;2.30;1.30;;;10.10;99.90;;;;;;10047834;28;20052;-64
2023/04/02 02:51:38;;;;;;;3.22;0.95;;;10.10;99.90;;;;;;10058164;28;20028;-63
2023/04/02 02:56:32;;;;;;;1.30;0.85;;;10.10;99.90;;;;;;10069894;28;20450;-63
2023/04/02 03:01:26;;;;;;;2.25;0.80;;;10.10;99.90;;;;;;10052318;28;20017;-62
2023/04/02 03:06:19;;;;;;;1.30;1.05;;;10.00;99.90;;;;;;10067873;28;20041;-63
2023/04/02 03:11:25;;;;;;;2.00;1.08;;;10.00;99.90;;;;;;10058160;28;20025;-63
2023/04/02 03:16:30;;;;;;;1.75;1.25;;;10.00;99.90;;;;;;10058596;28;20041;-61
2023/04/02 03:21:35;;;;;;;0.85;0.77;;;10.00;99.90;;;;;;10058053;28;20033;-63
2023/04/02 03:26:39;;;;;;;1.40;0.73;;;10.00;99.90;;;;;;10057496;28;20060;-61
2023/04/02 03:31:31;;;;;;;3.50;0.85;;;10.10;99.90;;;;;;10055068;28;20067;-62
2023/04/02 03:36:29;;;;;;;1.52;0.70;;;10.10;99.90;;;;;;10057829;28;20033;-62
2023/04/02 03:41:30;;;;;;;0.98;0.63;;;10.10;99.90;;;;;;10057296;28;20061;-61
2023/04/02 03:46:40;;;;;;;1.23;1.13;;;10.10;99.90;;;;;;10042715;28;20045;-62
2023/04/02 03:52:23;;;;;;;2.70;0.77;;;10.10;99.90;;;;;;10057016;28;20137;-62
2023/04/02 03:57:42;;;;;;;6.28;0.95;;;10.10;99.90;;;;;;10057594;28;20107;-61
2023/04/02 04:02:44;;;;;;;1.88;0.68;;;10.10;99.90;;;;;;10039830;28;20068;-62
2023/04/02 04:07:39;;;;;;;3.20;0.70;;;10.00;99.90;;;;;;10066646;28;20124;-63
2023/04/02 04:12:35;;;;;;;2.78;0.70;;;10.10;99.90;;;;;;10056305;28;20037;-64
2023/04/02 04:17:52;;;;;;;1.15;0.70;;;10.10;99.90;;;;;;10056599;28;20071;-63
2023/04/02 04:22:43;;;;;;;1.98;0.70;;;10.10;99.90;;;;;;10056016;28;20039;-64
2023/04/02 04:28:11;;;;;;;2.65;1.42;;;10.00;99.90;;;;;;10062811;28;20052;-64
2023/04/02 04:33:10;;;;;;;0.85;0.57;;;10.00;99.90;;;;;;10054026;28;20039;-65
2023/04/02 04:38:20;;;;;;;2.90;0.65;;;10.10;99.90;;;;;;10058108;28;20472;-64
2023/04/02 04:43:18;;;;;;;2.78;0.70;;;10.10;99.90;;;;;;10043449;28;20501;-62
2023/04/02 04:48:25;;;;;;;1.35;0.77;;;10.00;99.90;;;;;;10055364;28;20476;-63
2023/04/02 04:53:20;;;;;;;2.38;1.00;;;9.90;99.90;;;;;;10057586;28;20349;-62
2023/04/02 04:58:22;;;;;;;2.30;0.57;;;9.90;99.90;;;;;;10059811;28;20056;-62
2023/04/02 05:03:27;;;;;;;2.03;0.60;;;10.00;99.90;;;;;;10047536;28;20064;-65
2023/04/02 05:08:34;;;;;;;1.02;0.63;;;10.00;99.90;;;;;;10038246;28;20041;-63
2023/04/02 05:13:58;;;;;;;0.82;0.75;;;10.00;99.90;;;;;;10056630;28;20496;-63
2023/04/02 05:19:18;;;;;;;0.65;0.60;;;10.10;99.90;;;;;;10034682;28;20048;-63
2023/04/02 05:24:27;;;;;;;2.53;0.80;;;10.00;99.90;;;;;;10054873;28;20077;-62
2023/04/02 05:29:24;;;;;;;1.40;0.82;;;10.00;99.90;;;;;;10062256;28;20052;-64
2023/04/02 05:34:24;;;;;;;0.95;0.52;;;10.00;99.90;;;;;;10060462;28;20041;-61
2023/04/02 05:39:21;;;;;;;1.52;0.88;;;10.00;99.90;;;;;;10061823;28;20025;-62
2023/04/02 05:44:26;;;;;;;2.08;0.68;;;9.90;99.90;;;;;;10062420;28;20037;-64
2023/04/02 05:49:27;;;;;;;3.20;0.98;;;10.00;99.90;;;;;;10060702;28;20029;-63
2023/04/02 05:54:37;;;;;;;1.10;0.73;;;10.00;99.90;;;;;;10070250;28;20495;-64
2023/04/02 05:59:38;;;;;;;0.65;0.63;;;10.00;99.90;;;;;;10037583;28;20037;-61
2023/04/02 06:04:36;;;;;;;1.17;0.63;;;10.00;99.90;;;;;;10060510;28;20049;-64
2023/04/02 06:09:45;;;;;;;1.73;1.02;;;10.20;99.90;;;;;;10051266;28;20026;-64
2023/04/02 06:14:36;;;;;;;1.08;0.95;;;10.20;99.90;;;;;;10045321;28;20036;-65
2023/04/02 06:19:34;;;;;;;1.27;1.00;;;10.20;99.90;;;;;;10053082;28;20395;-65
2023/04/02 06:24:27;;;;;;;2.13;0.80;;;10.20;99.90;;;;;;10059520;28;20128;-65
2023/04/02 06:29:37;;;;;;;2.10;1.05;;;10.30;99.90;;;;;;10059068;28;20451;-64
2023/04/02 06:34:30;;;;;;;2.20;0.88;;;10.40;99.90;;;;;;10057563;28;20507;-63
2023/04/02 06:39:23;;;;;;;0.98;0.70;;;10.40;99.90;;;;;;10059038;28;20025;-66
2023/04/02 06:44:21;;;;;;;5.55;0.98;;;10.50;99.90;;;;;;10058796;28;20034;-63
2023/04/02 06:49:43;;;;;;;1.63;1.23;;;10.60;99.90;;;;;;10057175;28;20112;-64
2023/04/02 06:54:33;;;;;;;1.55;0.98;;;10.60;99.90;;;;;;10049412;28;20055;-65
2023/04/02 06:59:24;;;;;;;3.33;0.85;;;10.70;99.90;;;;;;10046903;28;20676;-63
2023/04/02 07:04:16;;;;;;;3.08;0.77;;;10.80;99.90;;;;;;10058723;28;20576;-65
2023/04/02 07:09:07;;;;;;;2.55;0.80;;;10.80;99.90;;;;;;10068635;28;20108;-62
2023/04/02 07:13:57;;;;;;;1.17;0.73;;;10.90;99.90;;;;;;10063621;28;20104;-64
2023/04/02 07:18:48;;;;;;;2.00;0.60;;;10.90;99.90;;;;;;10059299;28;20056;-63
2023/04/02 07:23:40;;;;;;;1.83;0.65;;;10.90;99.90;;;;;;10057585;28;20052;-63
2023/04/02 07:28:31;;;;;;;3.53;0.93;;;11.10;99.90;;;;;;10057311;28;20160;-62
2023/04/02 07:33:24;;;;;;;1.58;0.85;;;11.10;99.90;;;;;;10056120;28;20116;-63
2023/04/02 07:38:15;;;;;;;1.13;0.85;;;11.30;99.90;;;;;;10057440;28;20034;-62
2023/04/02 07:43:06;;;;;;;0.60;0.40;;;11.20;99.90;;;;;;10057266;28;20589;-61
2023/04/02 07:47:57;;;;;;;4.32;0.80;;;11.50;99.90;;;;;;10057247;28;20029;-62
2023/04/02 07:52:47;;;;;;;2.42;0.60;;;11.60;99.90;;;;;;10054174;28;20018;-63
2023/04/02 07:57:52;;;;;;;1.00;0.68;;;11.50;99.90;;;;;;10056609;28;20026;-64
2023/04/02 08:02:43;;;;;;;1.35;0.90;;;11.50;99.90;;;;;;10053785;28;20030;-61
2023/04/02 08:07:34;;;;;;;2.05;0.90;;;11.50;99.90;;;;;;10055000;28;20566;-62
2023/04/02 08:12:25;;;;;;;2.47;0.60;;;11.60;99.90;;;;;;10055702;28;20136;-63
2023/04/02 08:17:15;;;;;;;1.40;0.65;;;11.70;99.90;;;;;;10057166;28;20481;-66
2023/04/02 08:22:06;;;;;;;1.67;0.60;;;11.80;99.90;;;;;;10057576;28;20033;-63
2023/04/02 08:26:57;;;;;;;1.15;0.90;;;11.90;99.90;;;;;;10057407;28;20049;-61
2023/04/02 08:31:47;;;;;;;1.33;0.70;;;12.00;99.90;;;;;;10054757;28;20029;-63
2023/04/02 08:36:42;;;;;;;0.70;0.70;;;12.00;99.90;;;;;;10054778;28;20030;-64
2023/04/02 08:41:59;;;;;;;1.00;0.65;;;11.90;99.90;;;;;;10054745;28;20029;-66
2023/04/02 08:47:05;;;;;;;0.95;0.65;;;12.10;99.90;;;;;;10060547;28;20041;-68
2023/04/02 08:51:55;;;;;;;;;;;12.10;99.90;;;;;;10061025;28;20064;-64
2023/04/02 08:57:09;;;;;;;0.60;0.50;;;12.30;99.90;;;;;;10062399;28;20279;-65
2023/04/02 09:02:12;;;;;;;1.38;0.65;;;12.40;99.90;;;;;;10060995;28;20092;-64
2023/04/02 09:07:03;;;;;;;1.13;0.60;;;12.50;99.90;;;;;;10057528;28;20028;-65
2023/04/02 09:12:02;;;;;;;0.90;0.40;;;12.50;99.90;;;;;;10058102;28;20044;-65
2023/04/02 09:16:57;;;;;;;0.75;0.63;;;12.80;99.90;;;;;;10062097;28;20045;-65
2023/04/02 09:22:07;;;;;;;1.38;0.60;;;12.90;99.90;;;;;;10061510;28;20029;-65
2023/04/02 09:26:58;;;;;;;1.48;0.65;;;13.10;99.90;;;;;;10059391;28;20049;-66
2023/04/02 09:32:00;;;;;;;1.10;0.45;;;13.20;99.90;;;;;;10060291;28;20025;-66
2023/04/02 09:36:51;;;;;;;1.17;0.47;;;13.10;99.90;;;;;;10060716;28;20544;-64
2023/04/02 09:41:44;;;;;;;0.55;0.40;;;13.10;99.90;;;;;;10060640;28;20039;-65
2023/04/02 09:46:35;;;;;;;0.38;0.30;;;13.10;99.90;;;;;;10057606;28;20037;-65
2023/04/02 09:51:30;;;;;;;0.77;0.50;;;13.10;99.90;;;;;;10060287;28;20463;-64
2023/04/02 09:56:23;;;;;;;0.63;0.38;;;13.20;99.90;;;;;;10057019;28;20575;-66
2023/04/02 10:01:31;;;;;;;0.70;0.43;;;13.30;99.90;;;;;;10053812;28;20620;-66
2023/04/02 10:06:22;;;;;;;2.10;0.77;;;13.40;99.90;;;;;;10056473;28;20643;-64
2023/04/02 10:11:27;;;;;;;0.40;0.30;;;13.40;99.90;;;;;;10056033;28;20075;-64
2023/04/02 10:16:32;;;;;;;0.37;0.30;;;13.50;99.90;;;;;;10055311;28;20124;-66
2023/04/02 10:21:26;;;;;;;0.82;0.47;;;13.70;99.90;;;;;;10056630;28;20025;-69
2023/04/02 10:26:20;;;;;;;0.97;0.50;;;13.90;99.90;;;;;;10055787;28;20199;-66
2023/04/02 10:31:30;;;;;;;0.68;0.50;;;14.00;99.90;;;;;;10055688;28;20431;-67
2023/04/02 10:36:33;;;;;;;0.77;0.60;;;14.30;99.90;;;;;;10055151;28;20037;-67
2023/04/02 10:41:42;;;;;;;1.92;0.50;;;14.60;99.90;;;;;;10060402;28;20064;-69
2023/04/02 10:46:46;;;;;;;0.75;0.50;;;14.60;99.90;;;;;;10065294;28;20407;-71
2023/04/02 10:51:57;;;;;;;3.22;1.80;;;14.90;99.90;;;;;;10062072;28;20033;-69
2023/04/02 10:56:51;;;;;;;0.90;0.80;;;15.10;99.90;;;;;;10072656;28;20049;-69
2023/04/02 11:01:45;;;;;;;0.70;0.57;;;14.90;99.90;;;;;;10048811;28;20025;-69
2023/04/02 11:07:06;;;;;;;0.70;0.40;;;15.00;99.90;;;;;;10060541;28;20068;-66
2023/04/02 11:12:00;;;;;;;0.75;0.40;;;15.10;99.90;;;;;;10059359;28;20041;-69
2023/04/02 11:16:53;;;;;;;1.88;0.82;;;15.30;99.90;;;;;;10059075;28;20025;-67
2023/04/02 11:21:56;;;;;;;1.55;0.93;;;15.40;99.90;;;;;;10059098;28;20413;-69
2023/04/02 11:26:47;;;;;;;0.88;0.60;;;15.30;99.90;;;;;;10057285;28;20471;-67
2023/04/02 11:31:38;;;;;;;0.28;0.28;;;15.00;99.90;;;;;;10058304;28;20104;-64
2023/04/02 11:36:51;;;;;;;0.50;0.40;;;14.70;99.90;;;;;;10051389;28;20029;-65
2023/04/02 11:42:01;;;;;;;2.17;0.45;;;14.90;99.90;;;;;;10044651;28;20049;-64
2023/04/02 11:47:25;;;;;;;0.35;0.35;;;14.50;99.90;;;;;;10041141;28;20046;-64
2023/04/02 11:52:37;;;;;;;1.60;0.93;;;14.20;99.90;;;;;;10055725;28;20500;-66
2023/04/02 11:57:41;;;;;;;0.73;0.50;;;13.90;99.90;;;;;;10055762;28;20405;-65
2023/04/02 12:02:49;;;;;;;1.98;1.10;;;13.60;99.90;;;;;;10044124;28;20076;-68
2023/04/02 12:08:04;;;;;;;1.70;0.98;;;13.60;99.90;;;;;;10056481;28;20040;-66
2023/04/02 12:12:54;;;;;;;1.33;0.80;;;13.40;99.90;;;;;;10056198;28;20607;-68
2023/04/02 12:17:45;;;;;;;2.10;1.15;;;13.30;99.90;;;;;;10056193;28;20034;-67
2023/04/02 12:22:46;;;;;;;1.83;1.30;;;13.30;99.90;;;;;;10055747;28;20472;-67
2023/04/02 12:27:37;;;;;;;3.95;1.92;;;13.20;99.90;;;;;;10056883;28;20088;-69
2023/04/02 12:32:29;;;;;;;1.65;1.55;;;13.00;99.90;;;;;;10055890;28;20037;-69
2023/04/02 12:37:25;;;;;;;1.90;0.98;;;13.00;99.90;;;;;;10055262;28;20504;-69
2023/04/02 12:42:26;;;;;;;1.38;0.98;;;13.00;99.90;;;;;;10057065;28;20033;-66
2023/04/02 12:47:16;;;;;;;1.13;0.70;;;13.30;99.90;;;;;;10057176;28;20037;-69
2023/04/02 12:52:11;;;;;;;1.13;0.90;;;13.40;99.90;;;;;;10056865;28;20037;-69
2023/04/02 12:57:26;;;;;;;1.30;0.77;;;13.50;99.90;;;;;;10055050;28;20025;-69
2023/04/02 13:02:22;;;;;;;1.23;0.80;;;13.80;99.90;;;;;;10040474;28;20538;-69
2023/04/02 13:07:16;;;;;;;3.47;0.90;;;14.00;99.90;;;;;;10041835;28;20034;-69
2023/04/02 13:12:26;;;;;;;0.80;0.80;;;14.20;99.90;;;;;;10051955;28;20025;-69
2023/04/02 13:17:36;;;;;;;2.05;1.17;;;14.40;99.90;;;;;;10042839;28;20095;-69
2023/04/02 13:22:30;;;;;;;0.90;0.90;;;14.60;99.90;;;;;;10052270;28;20068;-68
2023/04/02 13:27:21;;;;;;;0.95;0.65;;;14.80;99.90;;;;;;10058068;28;20056;-69
2023/04/02 13:32:12;;;;;;;1.30;0.70;;;14.70;99.90;;;;;;10060346;28;20514;-70
2023/04/02 13:37:03;;;;;;;0.75;0.68;;;14.90;99.90;;;;;;10064440;28;20129;-70
2023/04/02 13:41:58;;;;;;;1.67;1.10;;;15.30;99.90;;;;;;10046569;28;20037;-68
2023/04/02 13:46:50;;;;;;;1.20;0.80;;;15.40;99.90;;;;;;10065091;28;20403;-69
2023/04/02 13:51:47;;;;;;;0.70;0.70;;;15.40;99.90;;;;;;10067904;28;20030;-70
2023/04/02 13:56:37;;;;;;;2.15;0.93;;;15.20;99.90;;;;;;10064245;28;20076;-69
2023/04/02 14:01:29;;;;;;;0.77;0.55;;;15.40;99.90;;;;;;10054729;28;20029;-69
2023/04/02 14:06:39;;;;;;;1.10;1.00;;;16.50;99.90;;;;;;10072175;28;20041;-68
2023/04/02 14:11:58;;;;;;;0.90;0.40;;;19.40;99.90;;;;;;10068137;28;20068;-69
2023/04/02 14:17:09;;;;;;;0.40;0.40;;;20.20;99.90;;;;;;10049541;28;20030;-69
2023/04/02 14:22:24;;;;;;;0.47;0.35;;;18.20;99.90;;;;;;10051332;28;20045;-69
2023/04/02 14:27:26;;;;;;;2.67;1.10;;;16.70;99.90;;;;;;10053622;28;20048;-68
2023/04/02 14:32:37;;;;;;;1.50;1.02;;;16.20;99.90;;;;;;10062093;28;20037;-68
2023/04/02 14:38:12;;;;;;;0.40;0.40;;;16.00;99.90;;;;;;10063033;28;20033;-69
2023/04/02 14:43:14;;;;;;;1.27;0.80;;;15.70;99.90;;;;;;10049326;28;20037;-69
2023/04/02 14:48:26;;;;;;;0.88;0.55;;;16.00;99.90;;;;;;10048874;28;20041;-69
2023/04/02 14:53:24;;;;;;;1.30;1.20;;;15.90;99.90;;;;;;10064230;28;20148;-68
2023/04/02 14:58:35;;;;;;;1.35;1.10;;;15.30;99.90;;;;;;10059526;28;20022;-69
2023/04/02 15:03:55;;;;;;;1.17;1.05;;;14.80;99.90;;;;;;10056360;28;20044;-70
2023/04/02 15:08:57;;;;;;;1.42;1.08;;;14.00;99.90;;;;;;10070404;28;20041;-69
2023/04/02 15:13:59;;;;;;;1.75;0.93;;;13.40;99.90;;;;;;10061041;28;20395;-67
2023/04/02 15:18:58;;;;;;;1.83;1.10;;;13.20;99.90;;;;;;10050591;28;20021;-69
2023/04/02 15:24:20;;;;;;;2.50;1.50;;;12.90;99.90;;;;;;10058739;28;20052;-68
2023/04/02 15:29:19;;;;;;;1.90;1.60;;;12.90;99.90;;;;;;10059875;28;20038;-68
2023/04/02 15:34:59;;;;;;;1.25;1.00;;;12.80;99.90;;;;;;10059705;28;20393;-69
2023/04/02 15:40:13;;;;;;;1.67;1.38;;;12.60;99.90;;;;;;9980836;28;20057;-70
2023/04/02 15:45:07;;;;;;;2.80;2.17;;;12.50;99.90;;;;;;10059564;28;20045;-71
2023/04/02 15:50:29;;;;;;;1.60;1.50;;;12.60;99.90;;;;;;10061529;28;20026;-70
2023/04/02 15:55:57;;;;;;;3.42;1.65;;;12.60;99.90;;;;;;10058016;28;20269;-69
2023/04/02 16:01:09;;;;;;;2.35;1.52;;;12.60;99.90;;;;;;10038951;28;20034;-68
2023/04/02 16:06:16;;;;;;;1.42;1.33;;;12.40;99.90;;;;;;10065645;28;20063;-68
2023/04/02 16:11:12;;;;;;;2.17;1.20;;;12.40;99.90;;;;;;10052878;28;20131;-69
2023/04/02 16:16:12;;;;;;;1.23;1.08;;;12.50;99.90;;;;;;10061200;28;20037;-70
2023/04/02 16:21:03;;;;;;;4.65;1.23;;;12.30;99.90;;;;;;10064052;28;20108;-69
2023/04/02 16:26:22;;;;;;;2.40;2.20;;;12.10;99.90;;;;;;10058151;28;20585;-68
2023/04/02 16:31:23;;;;;;;2.28;1.50;;;11.90;99.90;;;;;;10057749;28;20039;-70
2023/04/02 16:36:32;;;;;;;1.60;0.80;;;11.70;99.90;;;;;;10055581;28;20488;-69
2023/04/02 16:41:45;;;;;;;1.50;1.10;;;11.70;99.90;;;;;;10045821;28;20485;-68
2023/04/02 16:46:55;;;;;;;2.97;1.90;;;11.60;99.90;;;;;;10048442;28;20107;-68
2023/04/02 16:52:06;;;;;;;2.90;1.00;;;11.50;99.90;;;;;;10059799;28;20089;-68
2023/04/02 16:57:26;;;;;;;0.77;0.70;;;11.20;99.90;;;;;;10056752;28;20017;-67
2023/04/02 17:02:55;;;;;;;1.17;0.82;;;11.10;99.90;;;;;;10041431;28;20038;-68
2023/04/02 17:08:19;;;;;;;1.88;1.20;;;10.90;99.90;;;;;;10070132;28;20030;-68
2023/04/02 17:13:10;;;;;;;1.33;1.13;;;10.80;99.90;;;;;;10063197;28;20267;-68
2023/04/02 17:18:07;;;;;;;2.55;1.48;;;10.70;99.90;;;;;;10064619;28;20077;-69
2023/04/02 17:22:59;;;;;;;1.98;1.52;;;10.60;99.90;;;;;;10064282;28;20546;-68
2023/04/02 17:27:54;;;;;;;1.80;1.33;;;10.50;99.90;;;;;;10062861;28;20053;-68
2023/04/02 17:32:45;;;;;;;1.20;1.08;;;10.40;99.90;;;;;;10057747;28;20399;-68
2023/04/02 17:37:45;;;;;;;2.75;1.30;;;10.50;99.90;;;;;;10061359;28;20037;-68
2023/04/02 17:42:55;;;;;;;2.03;1.48;;;10.30;99.90;;;;;;10057645;28;20515;-70
2023/04/02 17:48:03;;;;;;;3.88;1.35;;;10.40;99.90;;;;;;10059677;28;20049;-70
2023/04/02 17:53:38;;;;;;;2.00;1.80;;;10.10;99.90;;;;;;10070215;28;20104;-68
2023/04/02 17:59:07;;;;;;;2.17;1.80;;;10.10;99.90;;;;;;10029207;28;20253;-69
2023/04/02 18:04:20;;;;;;;5.55;2.38;;;10.00;99.90;;;;;;10032377;28;20154;-70
2023/04/02 18:09:58;;;;;;;2.40;1.92;;;9.90;99.90;;;;;;10058937;28;20431;-71
2023/04/02 18:15:07;;;;;;;1.88;1.50;;;9.90;99.90;;;;;;10035577;28;20060;-67
2023/04/02 18:20:04;;;;;;;3.55;1.90;;;9.80;99.90;;;;;;10042004;28;20496;-68
2023/04/02 18:25:20;;;;;;;2.28;1.92;;;9.70;99.90;;;;;;10045441;28;20033;-69
2023/04/02 18:30:21;;;;;;;3.20;1.83;;;9.60;99.90;;;;;;10065777;28;20064;-65
2023/04/02 18:35:28;;;;;;;3.03;1.90;;;9.50;99.90;;;;;;10050727;28;20052;-65
2023/04/02 18:40:33;;;;;;;3.28;2.28;;;9.40;99.90;;;;;;10048946;28;20034;-65
2023/04/02 18:45:35;;;;;;;2.60;2.08;;;9.40;99.90;;;;;;10060662;28;20577;-64
2023/04/02 18:50:33;;;;;;;2.80;2.30;;;9.40;99.90;;;;;;10069620;28;20550;-65
2023/04/02 18:55:27;;;;;;;2.72;2.20;;;9.30;99.90;;;;;;10057477;28;20083;-63
2023/04/02 19:00:26;;;;;;;3.83;2.17;;;9.20;99.90;;;;;;10039399;28;20033;-66
2023/04/02 19:05:43;;;;;;;2.97;2.45;;;9.10;99.90;;;;;;10046986;28;20037;-64
2023/04/02 19:10:37;;;;;;;3.35;2.35;;;8.90;99.90;;;;;;10044324;28;20045;-66
2023/04/02 19:15:56;;;;;;;3.05;2.10;;;9.00;99.90;;;;;;10026702;28;20463;-67
2023/04/02 19:20:56;;;;;;;3.78;2.67;;;8.90;99.90;;;;;;10046373;28;20421;-70
2023/04/02 19:26:01;;;;;;;4.78;3.20;;;8.90;99.90;;;;;;10056030;28;20114;-69
2023/04/02 19:31:02;;;;;;;4.28;3.03;;;8.90;99.90;;;;;;10054995;28;20075;-69
2023/04/02 19:35:54;;;;;;;3.47;2.75;;;8.80;99.90;;;;;;10047039;28;20040;-68
2023/04/02 19:41:33;;;;;;;3.60;2.33;;;8.60;99.90;;;;;;10048185;28;20187;-68
2023/04/02 19:46:24;;;;;;;4.40;2.80;;;8.60;99.90;;;;;;10054953;28;20063;-69
2023/04/02 19:51:15;;;;;;;4.63;2.70;;;8.40;99.90;;;;;;10044431;28;20105;-71
2023/04/02 19:56:06;;;;;;;5.00;3.03;;;8.40;99.90;;;;;;10056804;28;20176;-71
2023/04/02 20:00:57;;;;;;;3.75;2.53;;;8.50;99.90;;;;;;10046742;28;20036;-69
2023/04/02 20:05:48;;;;;;;4.45;3.35;;;8.40;99.90;;;;;;10057702;28;20061;-71
2023/04/02 20:10:39;;;;;;;3.58;2.55;;;8.30;99.90;;;;;;10053343;28;20033;-71
2023/04/02 20:15:30;;;;;;;3.83;3.30;;;8.30;99.90;;;;;;10035434;28;20087;-70
2023/04/02 20:20:20;;;;;;;4.82;2.67;;;8.20;99.90;;;;;;10059489;28;20108;-69
2023/04/02 20:25:14;;;;;;;4.45;3.20;;;8.20;99.90;;;;;;10053565;28;20034;-69
2023/04/02 20:30:06;;;;;;;4.97;2.50;;;8.20;99.90;;;;;;10047220;28;20036;-68
2023/04/02 20:34:56;;;;;;;4.47;2.60;;;8.20;99.90;;;;;;10062416;28;20067;-69
2023/04/02 20:39:47;;;;;;;5.00;3.47;;;8.00;99.90;;;;;;10056089;28;20040;-69
2023/04/02 20:44:39;;;;;;;4.63;2.42;;;8.00;99.90;;;;;;10051971;28;20060;-74
2023/04/02 20:49:30;;;;;;;3.67;2.03;;;8.00;99.90;;;;;;10055574;28;20021;-69
2023/04/02 20:54:20;;;;;;;4.88;2.92;;;8.00;99.90;;;;;;10051930;28;20061;-68
2023/04/02 20:59:11;;;;;;;4.55;2.53;;;7.90;99.90;;;;;;10042315;28;20515;-65
2023/04/02 21:04:02;;;;;;;4.88;2.53;;;8.00;99.90;;;;;;10041802;28;20033;-62
2023/04/02 21:08:53;;;;;;;3.78;2.20;;;8.00;99.90;;;;;;10064669;28;20071;-65
2023/04/02 21:13:44;;;;;;;3.72;2.38;;;7.90;99.90;;;;;;10056942;28;20090;-63
2023/04/02 21:18:35;;;;;;;3.85;2.58;;;8.00;99.90;;;;;;10056504;28;20025;-65
2023/04/02 21:23:26;;;;;;;3.95;2.67;;;8.00;99.90;;;;;;10054264;28;20574;-68
2023/04/02 21:28:17;;;;;;;2.58;2.22;;;8.10;99.90;;;;;;10052961;28;20439;-65
2023/04/02 21:33:07;;;;;;;2.00;1.80;;;8.00;99.90;;;;;;10048956;28;20033;-65
2023/04/02 21:37:58;;;;;;;2.17;1.42;;;8.10;99.90;;;;;;10054474;28;20034;-68
2023/04/02 21:42:49;;;;;;;1.88;1.33;;;8.10;99.90;;;;;;10056325;28;20088;-61
2023/04/02 21:47:39;;;;;;;3.75;1.92;;;8.00;99.90;;;;;;10049478;28;20207;-65
2023/04/02 21:52:31;;;;;;;1.40;1.30;;;8.00;99.90;;;;;;10054437;28;20504;-63
2023/04/02 21:57:21;;;;;;;1.95;1.77;;;7.90;99.90;;;;;;10054128;28;20118;-72
2023/04/02 22:02:12;;;;;;;2.35;1.73;;;7.80;99.90;;;;;;10045231;28;20144;-64
2023/04/02 22:07:03;;;;;;;3.35;1.50;;;7.80;99.90;;;;;;10054717;28;20045;-63
2023/04/02 22:12:01;;;;;;;2.17;1.08;;;7.80;99.90;;;;;;10055783;28;20253;-68
2023/04/02 22:16:51;;;;;;;2.63;1.50;;;7.70;99.90;;;;;;10052872;28;20122;-64
2023/04/02 22:21:43;;;;;;;2.28;1.40;;;7.60;99.90;;;;;;10049700;28;20411;-68
2023/04/02 22:26:34;;;;;;;1.70;1.20;;;7.60;99.90;;;;;;10054682;28;20049;-65
2023/04/02 22:31:27;;;;;;;1.50;1.17;;;7.50;99.90;;;;;;10060787;28;20026;-66
2023/04/02 22:36:19;;;;;;;1.92;1.13;;;7.50;99.90;;;;;;10055206;28;20029;-64
2023/04/02 22:41:12;;;;;;;2.17;1.50;;;7.50;99.90;;;;;;10056394;28;20025;-66
2023/04/02 22:46:04;;;;;;;1.88;1.23;;;7.50;99.90;;;;;;10059604;28;20346;-64
2023/04/02 22:50:55;;;;;;;2.30;1.50;;;7.30;99.90;;;;;;10065000;28;20028;-66
2023/04/02 22:55:45;;;;;;;1.30;1.08;;;7.40;99.90;;;;;;10057630;28;20049;-65
2023/04/02 23:00:37;;;;;;;1.95;1.08;;;7.30;99.90;;;;;;10048272;28;20191;-61
2023/04/02 23:05:28;;;;;;;1.20;1.10;;;7.20;99.90;;;;;;10063662;28;20037;-66
2023/04/02 23:10:18;;;;;;;1.83;1.40;;;7.20;99.90;;;;;;10057763;28;20404;-61
2023/04/02 23:15:09;;;;;;;1.80;1.20;;;7.20;99.90;;;;;;10056122;28;20049;-64
2023/04/02 23:20:00;;;;;;;1.10;1.00;;;7.20;99.90;;;;;;10057489;28;20528;-61
2023/04/02 23:24:53;;;;;;;1.67;1.17;;;7.10;99.90;;;;;;10054877;28;20160;-67
2023/04/02 23:29:43;;;;;;;2.47;1.25;;;7.10;99.90;;;;;;10057648;28;20099;-61
2023/04/02 23:34:34;;;;;;;1.63;1.13;;;7.10;99.90;;;;;;10066351;28;20415;-63
2023/04/02 23:39:25;;;;;;;2.00;1.20;;;7.20;99.90;;;;;;10057396;28;20459;-62
2023/04/02 23:44:16;;;;;;;1.85;1.40;;;7.20;99.90;;;;;;10057709;28;20057;-62
2023/04/02 23:49:08;;;;;;;3.33;1.15;;;7.00;99.90;;;;;;10055727;28;20033;-62
2023/04/02 23:53:59;;;;;;;1.58;1.20;;;7.00;99.90;;;;;;10045397;28;20040;-68
2023/04/02 23:58:50;;;;;;;2.58;1.20;;;6.90;99.90;;;;;;10042539;28;20057;-64
